Terminal Aerodrome Forecast
Issued by NWS

Home | Current Version | Previous Version | Text Only | Print | Product List | Glossary On
Versions: 1 2 3 4 5 6 7 8 9 10 11 12 13 14 15 16 17 18 19 20
000
FTUS45 KTFX 171242 AAB
TAFCTB
TAF AMD
KCTB 171242Z 1713/1812 24030G40KT 5SM BLSN BKN100 BKN200
      TEMPO 1713/1715 24035G45KT 1SM BLSN
     FM171800 26030G40KT P6SM FEW080 SCT150
     FM180100 25019G31KT P6SM BKN080 BKN150
     FM181100 26021G35KT P6SM BKN090 BKN120 WS020/26045KT=

USA.gov is the U.S. government's official web portal to all federal, state and local government web resources and services.